sensor_id;sensor_type;location;lat;lon;timestamp;P1;durP1;ratioP1;P2;durP2;ratioP2
26038;SDS011;13815;52.374;4.882;2023-02-15T00:00:24;42.38;;;2.78;;
26038;SDS011;13815;52.374;4.882;2023-02-15T00:02:49;8.07;;;1.13;;
26038;SDS011;13815;52.374;4.882;2023-02-15T00:05:15;4.22;;;0.85;;
26038;SDS011;13815;52.374;4.882;2023-02-15T00:07:40;11.18;;;1.05;;
26038;SDS011;13815;52.374;4.882;2023-02-15T00:10:06;4.43;;;0.82;;
26038;SDS011;13815;52.374;4.882;2023-02-15T00:12:32;2.90;;;0.52;;
26038;SDS011;13815;52.374;4.882;2023-02-15T00:14:57;28.15;;;2.08;;
26038;SDS011;13815;52.374;4.882;2023-02-15T00:17:23;1.50;;;0.50;;
26038;SDS011;13815;52.374;4.882;2023-02-15T00:19:48;1.00;;;0.40;;
26038;SDS011;13815;52.374;4.882;2023-02-15T00:22:14;3.13;;;0.63;;
26038;SDS011;13815;52.374;4.882;2023-02-15T00:24:39;21.05;;;1.92;;
26038;SDS011;13815;52.374;4.882;2023-02-15T00:27:05;33.25;;;2.17;;
26038;SDS011;13815;52.374;4.882;2023-02-15T00:29:30;10.20;;;0.68;;
26038;SDS011;13815;52.374;4.882;2023-02-15T00:31:56;11.18;;;1.20;;
26038;SDS011;13815;52.374;4.882;2023-02-15T00:34:23;4.47;;;0.75;;
26038;SDS011;13815;52.374;4.882;2023-02-15T00:36:50;5.40;;;0.88;;
26038;SDS011;13815;52.374;4.882;2023-02-15T00:39:16;4.15;;;0.68;;
26038;SDS011;13815;52.374;4.882;2023-02-15T00:41:42;8.68;;;0.85;;
26038;SDS011;13815;52.374;4.882;2023-02-15T00:44:08;1.65;;;0.40;;
26038;SDS011;13815;52.374;4.882;2023-02-15T00:46:34;1.52;;;0.40;;
26038;SDS011;13815;52.374;4.882;2023-02-15T00:48:59;18.70;;;1.63;;
26038;SDS011;13815;52.374;4.882;2023-02-15T00:51:25;4.47;;;0.63;;
26038;SDS011;13815;52.374;4.882;2023-02-15T00:53:51;5.63;;;0.57;;
26038;SDS011;13815;52.374;4.882;2023-02-15T00:56:16;5.00;;;0.63;;
26038;SDS011;13815;52.374;4.882;2023-02-15T00:58:41;0.60;;;0.20;;
26038;SDS011;13815;52.374;4.882;2023-02-15T01:01:11;28.63;;;1.77;;
26038;SDS011;13815;52.374;4.882;2023-02-15T01:03:38;5.00;;;0.60;;
26038;SDS011;13815;52.374;4.882;2023-02-15T01:06:06;11.73;;;0.85;;
26038;SDS011;13815;52.374;4.882;2023-02-15T01:08:31;12.38;;;1.00;;
26038;SDS011;13815;52.374;4.882;2023-02-15T01:10:59;4.55;;;0.60;;
26038;SDS011;13815;52.374;4.882;2023-02-15T01:13:31;30.80;;;1.85;;
26038;SDS011;13815;52.374;4.882;2023-02-15T01:15:57;2.78;;;0.45;;
26038;SDS011;13815;52.374;4.882;2023-02-15T01:18:22;5.47;;;0.68;;
26038;SDS011;13815;52.374;4.882;2023-02-15T01:20:48;29.17;;;1.70;;
26038;SDS011;13815;52.374;4.882;2023-02-15T01:23:14;3.70;;;0.45;;
26038;SDS011;13815;52.374;4.882;2023-02-15T01:25:40;5.75;;;0.52;;
26038;SDS011;13815;52.374;4.882;2023-02-15T01:28:08;45.15;;;3.33;;
26038;SDS011;13815;52.374;4.882;2023-02-15T01:30:33;3.15;;;0.40;;
26038;SDS011;13815;52.374;4.882;2023-02-15T01:32:59;16.83;;;1.17;;
26038;SDS011;13815;52.374;4.882;2023-02-15T01:35:27;21.42;;;1.27;;
26038;SDS011;13815;52.374;4.882;2023-02-15T01:37:54;1.50;;;0.30;;
26038;SDS011;13815;52.374;4.882;2023-02-15T01:40:20;37.03;;;2.45;;
26038;SDS011;13815;52.374;4.882;2023-02-15T01:42:46;15.23;;;1.00;;
26038;SDS011;13815;52.374;4.882;2023-02-15T01:47:45;36.13;;;2.28;;
26038;SDS011;13815;52.374;4.882;2023-02-15T01:53:08;5.28;;;0.47;;
26038;SDS011;13815;52.374;4.882;2023-02-15T01:56:03;19.05;;;1.30;;
26038;SDS011;13815;52.374;4.882;2023-02-15T01:58:31;0.52;;;0.10;;
26038;SDS011;13815;52.374;4.882;2023-02-15T02:00:58;5.97;;;0.40;;
26038;SDS011;13815;52.374;4.882;2023-02-15T02:03:36;5.82;;;0.57;;
26038;SDS011;13815;52.374;4.882;2023-02-15T02:06:07;32.78;;;1.67;;
26038;SDS011;13815;52.374;4.882;2023-02-15T02:08:33;4.20;;;0.45;;
26038;SDS011;13815;52.374;4.882;2023-02-15T02:10:58;0.45;;;0.13;;
26038;SDS011;13815;52.374;4.882;2023-02-15T02:13:24;45.47;;;2.45;;
26038;SDS011;13815;52.374;4.882;2023-02-15T02:21:30;11.70;;;0.88;;
26038;SDS011;13815;52.374;4.882;2023-02-15T02:27:05;16.45;;;1.05;;
26038;SDS011;13815;52.374;4.882;2023-02-15T02:29:46;7.05;;;0.60;;
26038;SDS011;13815;52.374;4.882;2023-02-15T02:35:22;13.32;;;0.85;;
26038;SDS011;13815;52.374;4.882;2023-02-15T02:38:21;29.08;;;1.60;;
26038;SDS011;13815;52.374;4.882;2023-02-15T02:41:21;31.35;;;1.73;;
26038;SDS011;13815;52.374;4.882;2023-02-15T02:46:59;1.70;;;0.20;;
26038;SDS011;13815;52.374;4.882;2023-02-15T02:49:33;16.30;;;0.90;;
26038;SDS011;13815;52.374;4.882;2023-02-15T02:52:06;5.75;;;0.55;;
26038;SDS011;13815;52.374;4.882;2023-02-15T02:54:51;13.25;;;0.85;;
26038;SDS011;13815;52.374;4.882;2023-02-15T02:57:16;4.80;;;0.47;;
26038;SDS011;13815;52.374;4.882;2023-02-15T02:59:42;0.75;;;0.20;;
26038;SDS011;13815;52.374;4.882;2023-02-15T03:02:17;10.43;;;0.80;;
26038;SDS011;13815;52.374;4.882;2023-02-15T03:04:47;8.82;;;0.90;;
26038;SDS011;13815;52.374;4.882;2023-02-15T03:07:23;0.80;;;0.20;;
26038;SDS011;13815;52.374;4.882;2023-02-15T03:09:51;9.05;;;0.82;;
26038;SDS011;13815;52.374;4.882;2023-02-15T03:12:21;1.08;;;0.20;;
26038;SDS011;13815;52.374;4.882;2023-02-15T03:14:58;1.40;;;0.25;;
26038;SDS011;13815;52.374;4.882;2023-02-15T03:17:29;23.65;;;1.45;;
26038;SDS011;13815;52.374;4.882;2023-02-15T03:20:01;0.10;;;0.10;;
26038;SDS011;13815;52.374;4.882;2023-02-15T03:22:33;27.75;;;1.67;;
26038;SDS011;13815;52.374;4.882;2023-02-15T03:25:05;5.93;;;0.80;;
26038;SDS011;13815;52.374;4.882;2023-02-15T03:28:08;1.40;;;0.30;;
26038;SDS011;13815;52.374;4.882;2023-02-15T03:30:35;2.33;;;0.35;;
26038;SDS011;13815;52.374;4.882;2023-02-15T03:33:02;24.95;;;1.38;;
26038;SDS011;13815;52.374;4.882;2023-02-15T03:35:45;2.17;;;0.38;;
26038;SDS011;13815;52.374;4.882;2023-02-15T03:38:17;10.77;;;0.65;;
26038;SDS011;13815;52.374;4.882;2023-02-15T03:40:45;0.65;;;0.20;;
26038;SDS011;13815;52.374;4.882;2023-02-15T03:43:31;2.35;;;0.40;;
26038;SDS011;13815;52.374;4.882;2023-02-15T03:46:01;3.15;;;0.40;;
26038;SDS011;13815;52.374;4.882;2023-02-15T03:48:41;24.45;;;1.52;;
26038;SDS011;13815;52.374;4.882;2023-02-15T03:51:14;2.05;;;0.38;;
26038;SDS011;13815;52.374;4.882;2023-02-15T03:54:02;1.30;;;0.30;;
26038;SDS011;13815;52.374;4.882;2023-02-15T03:56:30;28.58;;;1.77;;
26038;SDS011;13815;52.374;4.882;2023-02-15T03:58:56;6.15;;;0.68;;
26038;SDS011;13815;52.374;4.882;2023-02-15T04:01:40;32.63;;;1.98;;
26038;SDS011;13815;52.374;4.882;2023-02-15T04:04:25;5.00;;;0.60;;
26038;SDS011;13815;52.374;4.882;2023-02-15T04:06:59;27.38;;;1.73;;
26038;SDS011;13815;52.374;4.882;2023-02-15T04:09:25;1.60;;;0.30;;
26038;SDS011;13815;52.374;4.882;2023-02-15T04:12:09;25.13;;;1.50;;
26038;SDS011;13815;52.374;4.882;2023-02-15T04:14:34;3.00;;;0.47;;
26038;SDS011;13815;52.374;4.882;2023-02-15T04:17:18;25.83;;;1.60;;
26038;SDS011;13815;52.374;4.882;2023-02-15T04:19:44;10.65;;;1.10;;
26038;SDS011;13815;52.374;4.882;2023-02-15T04:22:28;34.47;;;1.92;;
26038;SDS011;13815;52.374;4.882;2023-02-15T04:25:11;4.68;;;0.50;;
26038;SDS011;13815;52.374;4.882;2023-02-15T04:27:44;44.40;;;2.53;;
26038;SDS011;13815;52.374;4.882;2023-02-15T04:30:11;1.48;;;0.32;;
26038;SDS011;13815;52.374;4.882;2023-02-15T04:32:40;36.72;;;2.38;;
26038;SDS011;13815;52.374;4.882;2023-02-15T04:35:06;5.93;;;0.70;;
26038;SDS011;13815;52.374;4.882;2023-02-15T04:37:32;4.07;;;0.57;;
26038;SDS011;13815;52.374;4.882;2023-02-15T04:39:58;40.63;;;2.40;;
26038;SDS011;13815;52.374;4.882;2023-02-15T04:42:24;9.05;;;1.08;;
26038;SDS011;13815;52.374;4.882;2023-02-15T04:44:50;11.48;;;1.13;;
26038;SDS011;13815;52.374;4.882;2023-02-15T04:47:16;44.20;;;2.80;;
26038;SDS011;13815;52.374;4.882;2023-02-15T04:49:42;14.10;;;1.33;;
26038;SDS011;13815;52.374;4.882;2023-02-15T04:52:28;34.30;;;2.83;;
26038;SDS011;13815;52.374;4.882;2023-02-15T04:54:53;3.72;;;0.60;;
26038;SDS011;13815;52.374;4.882;2023-02-15T04:57:18;6.72;;;0.73;;
26038;SDS011;13815;52.374;4.882;2023-02-15T04:59:44;28.80;;;1.88;;
26038;SDS011;13815;52.374;4.882;2023-02-15T05:02:09;5.57;;;0.60;;
26038;SDS011;13815;52.374;4.882;2023-02-15T05:04:34;3.22;;;0.43;;
26038;SDS011;13815;52.374;4.882;2023-02-15T05:07:02;20.50;;;1.45;;
26038;SDS011;13815;52.374;4.882;2023-02-15T05:09:28;9.88;;;1.05;;
26038;SDS011;13815;52.374;4.882;2023-02-15T05:11:53;29.98;;;1.98;;
26038;SDS011;13815;52.374;4.882;2023-02-15T05:14:19;9.90;;;1.10;;
26038;SDS011;13815;52.374;4.882;2023-02-15T05:16:44;5.35;;;0.63;;
26038;SDS011;13815;52.374;4.882;2023-02-15T05:19:10;23.23;;;1.52;;
26038;SDS011;13815;52.374;4.882;2023-02-15T05:21:35;4.63;;;0.55;;
26038;SDS011;13815;52.374;4.882;2023-02-15T05:24:01;7.03;;;0.75;;
26038;SDS011;13815;52.374;4.882;2023-02-15T05:26:46;13.38;;;0.88;;
26038;SDS011;13815;52.374;4.882;2023-02-15T05:29:30;3.88;;;0.47;;
26038;SDS011;13815;52.374;4.882;2023-02-15T05:31:55;11.45;;;1.17;;
26038;SDS011;13815;52.374;4.882;2023-02-15T05:34:21;19.80;;;1.75;;
26038;SDS011;13815;52.374;4.882;2023-02-15T05:36:46;56.08;;;4.00;;
26038;SDS011;13815;52.374;4.882;2023-02-15T05:39:12;17.42;;;1.42;;
26038;SDS011;13815;52.374;4.882;2023-02-15T05:41:37;4.47;;;0.60;;
26038;SDS011;13815;52.374;4.882;2023-02-15T05:44:02;38.67;;;2.40;;
26038;SDS011;13815;52.374;4.882;2023-02-15T05:46:28;5.10;;;0.52;;
26038;SDS011;13815;52.374;4.882;2023-02-15T05:48:53;6.88;;;0.70;;
26038;SDS011;13815;52.374;4.882;2023-02-15T05:51:19;35.45;;;2.33;;
26038;SDS011;13815;52.374;4.882;2023-02-15T05:53:44;7.32;;;0.75;;
26038;SDS011;13815;52.374;4.882;2023-02-15T05:56:10;1.73;;;0.25;;
26038;SDS011;13815;52.374;4.882;2023-02-15T05:58:37;25.58;;;1.85;;
26038;SDS011;13815;52.374;4.882;2023-02-15T06:01:11;5.00;;;0.52;;
26038;SDS011;13815;52.374;4.882;2023-02-15T06:03:37;30.85;;;1.98;;
26038;SDS011;13815;52.374;4.882;2023-02-15T06:06:03;9.38;;;0.88;;
26038;SDS011;13815;52.374;4.882;2023-02-15T06:08:29;21.20;;;1.65;;
26038;SDS011;13815;52.374;4.882;2023-02-15T06:10:57;35.75;;;2.00;;
26038;SDS011;13815;52.374;4.882;2023-02-15T06:13:22;9.00;;;0.88;;
26038;SDS011;13815;52.374;4.882;2023-02-15T06:15:48;9.65;;;0.85;;
26038;SDS011;13815;52.374;4.882;2023-02-15T06:18:13;27.20;;;1.83;;
26038;SDS011;13815;52.374;4.882;2023-02-15T06:20:39;8.10;;;0.80;;
26038;SDS011;13815;52.374;4.882;2023-02-15T06:23:04;6.25;;;0.63;;
26038;SDS011;13815;52.374;4.882;2023-02-15T06:25:29;15.00;;;1.10;;
26038;SDS011;13815;52.374;4.882;2023-02-15T06:27:55;13.88;;;1.13;;
26038;SDS011;13815;52.374;4.882;2023-02-15T06:30:20;22.42;;;1.63;;
26038;SDS011;13815;52.374;4.882;2023-02-15T06:32:46;7.28;;;0.70;;
26038;SDS011;13815;52.374;4.882;2023-02-15T06:35:14;7.00;;;0.65;;
26038;SDS011;13815;52.374;4.882;2023-02-15T06:37:41;18.88;;;1.23;;
26038;SDS011;13815;52.374;4.882;2023-02-15T06:40:07;15.60;;;1.00;;
26038;SDS011;13815;52.374;4.882;2023-02-15T06:42:33;8.30;;;0.80;;
26038;SDS011;13815;52.374;4.882;2023-02-15T06:44:58;10.10;;;1.00;;
26038;SDS011;13815;52.374;4.882;2023-02-15T06:47:25;2.00;;;0.25;;
26038;SDS011;13815;52.374;4.882;2023-02-15T06:49:50;15.15;;;1.30;;
26038;SDS011;13815;52.374;4.882;2023-02-15T06:52:15;25.55;;;1.55;;
26038;SDS011;13815;52.374;4.882;2023-02-15T06:54:41;5.18;;;0.50;;
26038;SDS011;13815;52.374;4.882;2023-02-15T06:57:06;16.92;;;1.08;;
26038;SDS011;13815;52.374;4.882;2023-02-15T06:59:31;14.13;;;0.85;;
26038;SDS011;13815;52.374;4.882;2023-02-15T07:01:57;12.07;;;0.98;;
26038;SDS011;13815;52.374;4.882;2023-02-15T07:04:22;2.83;;;0.30;;
26038;SDS011;13815;52.374;4.882;2023-02-15T07:06:48;5.40;;;0.50;;
26038;SDS011;13815;52.374;4.882;2023-02-15T07:09:13;2.60;;;0.28;;
26038;SDS011;13815;52.374;4.882;2023-02-15T07:11:38;26.25;;;1.60;;
26038;SDS011;13815;52.374;4.882;2023-02-15T07:14:22;4.05;;;0.40;;
26038;SDS011;13815;52.374;4.882;2023-02-15T07:16:48;27.50;;;1.67;;
26038;SDS011;13815;52.374;4.882;2023-02-15T07:19:13;3.55;;;0.40;;
26038;SDS011;13815;52.374;4.882;2023-02-15T07:21:38;5.68;;;0.50;;
26038;SDS011;13815;52.374;4.882;2023-02-15T07:24:04;9.57;;;0.73;;
26038;SDS011;13815;52.374;4.882;2023-02-15T07:26:31;13.85;;;0.90;;
26038;SDS011;13815;52.374;4.882;2023-02-15T07:28:56;8.65;;;0.68;;
26038;SDS011;13815;52.374;4.882;2023-02-15T07:31:22;38.35;;;2.17;;
26038;SDS011;13815;52.374;4.882;2023-02-15T07:33:47;35.17;;;2.78;;
26038;SDS011;13815;52.374;4.882;2023-02-15T07:36:13;6.45;;;0.55;;
26038;SDS011;13815;52.374;4.882;2023-02-15T07:38:39;29.38;;;1.95;;
26038;SDS011;13815;52.374;4.882;2023-02-15T07:41:09;32.83;;;2.58;;
26038;SDS011;13815;52.374;4.882;2023-02-15T07:43:37;17.92;;;1.33;;
26038;SDS011;13815;52.374;4.882;2023-02-15T07:46:04;13.35;;;0.90;;
26038;SDS011;13815;52.374;4.882;2023-02-15T07:48:32;6.40;;;0.70;;
26038;SDS011;13815;52.374;4.882;2023-02-15T07:50:58;28.85;;;2.10;;
26038;SDS011;13815;52.374;4.882;2023-02-15T07:53:25;5.13;;;0.60;;
26038;SDS011;13815;52.374;4.882;2023-02-15T07:55:50;13.15;;;1.10;;
26038;SDS011;13815;52.374;4.882;2023-02-15T07:58:17;35.13;;;1.92;;
26038;SDS011;13815;52.374;4.882;2023-02-15T08:00:43;13.93;;;0.90;;
26038;SDS011;13815;52.374;4.882;2023-02-15T08:03:24;10.40;;;0.93;;
26038;SDS011;13815;52.374;4.882;2023-02-15T08:05:57;17.25;;;1.00;;
26038;SDS011;13815;52.374;4.882;2023-02-15T08:08:23;12.32;;;1.13;;
26038;SDS011;13815;52.374;4.882;2023-02-15T08:14:02;19.88;;;1.33;;
26038;SDS011;13815;52.374;4.882;2023-02-15T08:16:45;17.00;;;1.10;;
26038;SDS011;13815;52.374;4.882;2023-02-15T08:19:16;24.90;;;1.95;;
26038;SDS011;13815;52.374;4.882;2023-02-15T08:24:13;23.73;;;1.63;;
26038;SDS011;13815;52.374;4.882;2023-02-15T08:26:40;62.97;;;4.90;;
26038;SDS011;13815;52.374;4.882;2023-02-15T08:29:06;23.88;;;1.85;;
26038;SDS011;13815;52.374;4.882;2023-02-15T08:31:32;20.17;;;1.25;;
26038;SDS011;13815;52.374;4.882;2023-02-15T08:33:58;13.32;;;1.20;;
26038;SDS011;13815;52.374;4.882;2023-02-15T08:36:28;40.65;;;2.50;;
26038;SDS011;13815;52.374;4.882;2023-02-15T08:38:56;31.70;;;2.35;;
26038;SDS011;13815;52.374;4.882;2023-02-15T08:41:24;9.70;;;1.05;;
26038;SDS011;13815;52.374;4.882;2023-02-15T08:43:54;40.00;;;2.42;;
26038;SDS011;13815;52.374;4.882;2023-02-15T08:46:20;7.25;;;0.73;;
26038;SDS011;13815;52.374;4.882;2023-02-15T08:48:47;17.33;;;1.45;;
26038;SDS011;13815;52.374;4.882;2023-02-15T08:51:20;14.27;;;1.23;;
26038;SDS011;13815;52.374;4.882;2023-02-15T08:53:48;11.18;;;1.05;;
26038;SDS011;13815;52.374;4.882;2023-02-15T08:56:15;14.68;;;1.17;;
26038;SDS011;13815;52.374;4.882;2023-02-15T08:58:41;9.05;;;1.00;;
26038;SDS011;13815;52.374;4.882;2023-02-15T09:01:10;23.90;;;1.95;;
26038;SDS011;13815;52.374;4.882;2023-02-15T09:03:37;22.02;;;1.77;;
26038;SDS011;13815;52.374;4.882;2023-02-15T09:06:02;22.60;;;1.95;;
26038;SDS011;13815;52.374;4.882;2023-02-15T09:08:28;31.73;;;2.00;;
26038;SDS011;13815;52.374;4.882;2023-02-15T09:10:54;24.52;;;1.83;;
26038;SDS011;13815;52.374;4.882;2023-02-15T09:13:28;6.50;;;0.73;;
26038;SDS011;13815;52.374;4.882;2023-02-15T09:15:58;37.85;;;2.53;;
26038;SDS011;13815;52.374;4.882;2023-02-15T09:18:24;4.55;;;0.60;;
26038;SDS011;13815;52.374;4.882;2023-02-15T09:20:50;39.17;;;2.88;;
26038;SDS011;13815;52.374;4.882;2023-02-15T09:23:15;19.30;;;1.58;;
26038;SDS011;13815;52.374;4.882;2023-02-15T09:25:40;25.73;;;2.28;;
26038;SDS011;13815;52.374;4.882;2023-02-15T09:28:07;25.13;;;1.83;;
26038;SDS011;13815;52.374;4.882;2023-02-15T09:30:33;22.20;;;1.67;;
26038;SDS011;13815;52.374;4.882;2023-02-15T09:32:59;9.43;;;1.13;;
26038;SDS011;13815;52.374;4.882;2023-02-15T09:35:24;34.00;;;1.98;;
26038;SDS011;13815;52.374;4.882;2023-02-15T09:37:50;20.40;;;1.55;;
26038;SDS011;13815;52.374;4.882;2023-02-15T09:40:15;19.58;;;1.73;;
26038;SDS011;13815;52.374;4.882;2023-02-15T09:43:27;16.42;;;1.67;;
26038;SDS011;13815;52.374;4.882;2023-02-15T09:53:41;18.40;;;1.55;;
26038;SDS011;13815;52.374;4.882;2023-02-15T09:56:37;23.05;;;1.98;;
26038;SDS011;13815;52.374;4.882;2023-02-15T09:59:28;36.97;;;2.85;;
26038;SDS011;13815;52.374;4.882;2023-02-15T10:26:30;25.17;;;6.03;;
26038;SDS011;13815;52.374;4.882;2023-02-15T10:29:08;21.60;;;6.60;;
26038;SDS011;13815;52.374;4.882;2023-02-15T10:31:43;23.42;;;7.90;;
26038;SDS011;13815;52.374;4.882;2023-02-15T10:45:21;33.05;;;17.95;;
26038;SDS011;13815;52.374;4.882;2023-02-15T10:50:45;51.47;;;23.50;;
26038;SDS011;13815;52.374;4.882;2023-02-15T10:56:00;65.50;;;26.27;;
26038;SDS011;13815;52.374;4.882;2023-02-15T11:06:35;54.55;;;26.52;;
26038;SDS011;13815;52.374;4.882;2023-02-15T11:09:05;45.08;;;26.15;;
26038;SDS011;13815;52.374;4.882;2023-02-15T11:11:44;49.67;;;25.75;;
26038;SDS011;13815;52.374;4.882;2023-02-15T11:17:02;53.40;;;25.60;;
26038;SDS011;13815;52.374;4.882;2023-02-15T11:25:45;54.28;;;25.77;;
26038;SDS011;13815;52.374;4.882;2023-02-15T11:28:47;44.13;;;24.75;;
26038;SDS011;13815;52.374;4.882;2023-02-15T11:31:46;52.33;;;24.75;;
26038;SDS011;13815;52.374;4.882;2023-02-15T11:34:51;42.10;;;24.70;;
26038;SDS011;13815;52.374;4.882;2023-02-15T11:37:32;64.78;;;26.08;;
26038;SDS011;13815;52.374;4.882;2023-02-15T11:40:01;68.65;;;25.42;;
26038;SDS011;13815;52.374;4.882;2023-02-15T11:42:28;50.05;;;23.80;;
26038;SDS011;13815;52.374;4.882;2023-02-15T11:47:27;52.88;;;24.80;;
26038;SDS011;13815;52.374;4.882;2023-02-15T11:49:53;50.20;;;25.08;;
26038;SDS011;13815;52.374;4.882;2023-02-15T11:52:18;52.88;;;24.90;;
26038;SDS011;13815;52.374;4.882;2023-02-15T11:54:45;49.13;;;25.25;;
26038;SDS011;13815;52.374;4.882;2023-02-15T11:57:16;98.03;;;28.52;;
26038;SDS011;13815;52.374;4.882;2023-02-15T12:00:05;52.33;;;25.30;;
26038;SDS011;13815;52.374;4.882;2023-02-15T12:02:40;55.42;;;26.08;;
26038;SDS011;13815;52.374;4.882;2023-02-15T12:05:15;55.25;;;26.08;;
26038;SDS011;13815;52.374;4.882;2023-02-15T12:07:45;57.90;;;26.60;;
26038;SDS011;13815;52.374;4.882;2023-02-15T12:10:28;42.22;;;25.52;;
26038;SDS011;13815;52.374;4.882;2023-02-15T12:13:11;51.22;;;25.25;;
26038;SDS011;13815;52.374;4.882;2023-02-15T12:15:44;64.97;;;25.88;;
26038;SDS011;13815;52.374;4.882;2023-02-15T12:18:31;58.38;;;26.98;;
26038;SDS011;13815;52.374;4.882;2023-02-15T12:21:12;83.45;;;28.98;;
26038;SDS011;13815;52.374;4.882;2023-02-15T12:23:42;53.00;;;25.55;;
26038;SDS011;13815;52.374;4.882;2023-02-15T12:26:12;42.78;;;25.50;;
26038;SDS011;13815;52.374;4.882;2023-02-15T12:28:39;44.05;;;24.73;;
26038;SDS011;13815;52.374;4.882;2023-02-15T12:33:48;48.97;;;27.52;;
26038;SDS011;13815;52.374;4.882;2023-02-15T12:36:22;77.03;;;28.92;;
26038;SDS011;13815;52.374;4.882;2023-02-15T12:44:20;57.08;;;31.70;;
26038;SDS011;13815;52.374;4.882;2023-02-15T12:46:58;70.63;;;32.72;;
26038;SDS011;13815;52.374;4.882;2023-02-15T12:49:25;64.00;;;30.73;;
26038;SDS011;13815;52.374;4.882;2023-02-15T12:51:53;80.53;;;34.40;;
26038;SDS011;13815;52.374;4.882;2023-02-15T12:54:39;87.97;;;31.92;;
26038;SDS011;13815;52.374;4.882;2023-02-15T12:59:51;60.63;;;26.92;;
26038;SDS011;13815;52.374;4.882;2023-02-15T13:05:04;53.25;;;28.35;;
26038;SDS011;13815;52.374;4.882;2023-02-15T13:07:48;58.10;;;28.58;;
26038;SDS011;13815;52.374;4.882;2023-02-15T13:10:21;51.38;;;28.00;;
26038;SDS011;13815;52.374;4.882;2023-02-15T13:12:49;99.65;;;30.65;;
26038;SDS011;13815;52.374;4.882;2023-02-15T13:15:26;58.60;;;27.90;;
26038;SDS011;13815;52.374;4.882;2023-02-15T13:17:54;50.58;;;27.40;;
26038;SDS011;13815;52.374;4.882;2023-02-15T13:20:21;50.25;;;27.35;;
26038;SDS011;13815;52.374;4.882;2023-02-15T13:22:49;64.65;;;29.40;;
26038;SDS011;13815;52.374;4.882;2023-02-15T13:25:19;70.03;;;29.65;;
26038;SDS011;13815;52.374;4.882;2023-02-15T13:27:48;69.13;;;29.20;;
26038;SDS011;13815;52.374;4.882;2023-02-15T13:30:25;48.30;;;27.98;;
26038;SDS011;13815;52.374;4.882;2023-02-15T13:33:10;49.58;;;27.27;;
26038;SDS011;13815;52.374;4.882;2023-02-15T13:41:46;68.95;;;29.27;;
26038;SDS011;13815;52.374;4.882;2023-02-15T13:47:06;64.72;;;28.58;;
26038;SDS011;13815;52.374;4.882;2023-02-15T13:52:47;71.18;;;29.58;;
26038;SDS011;13815;52.374;4.882;2023-02-15T13:55:38;77.57;;;31.13;;
26038;SDS011;13815;52.374;4.882;2023-02-15T14:00:51;84.53;;;30.83;;
26038;SDS011;13815;52.374;4.882;2023-02-15T14:03:25;69.60;;;28.63;;
26038;SDS011;13815;52.374;4.882;2023-02-15T14:06:15;63.85;;;29.33;;
26038;SDS011;13815;52.374;4.882;2023-02-15T14:12:46;78.10;;;29.10;;
26038;SDS011;13815;52.374;4.882;2023-02-15T14:15:24;67.68;;;29.58;;
26038;SDS011;13815;52.374;4.882;2023-02-15T14:17:55;76.28;;;28.95;;
26038;SDS011;13815;52.374;4.882;2023-02-15T14:26:10;55.78;;;29.90;;
26038;SDS011;13815;52.374;4.882;2023-02-15T14:28:50;84.53;;;32.67;;
26038;SDS011;13815;52.374;4.882;2023-02-15T14:31:18;71.60;;;31.90;;
26038;SDS011;13815;52.374;4.882;2023-02-15T14:33:53;63.95;;;29.73;;
26038;SDS011;13815;52.374;4.882;2023-02-15T14:36:20;84.70;;;32.75;;
26038;SDS011;13815;52.374;4.882;2023-02-15T14:42:04;63.42;;;32.95;;
26038;SDS011;13815;52.374;4.882;2023-02-15T14:44:37;74.80;;;30.90;;
26038;SDS011;13815;52.374;4.882;2023-02-15T14:47:10;54.70;;;28.60;;
26038;SDS011;13815;52.374;4.882;2023-02-15T14:49:40;66.63;;;29.38;;
26038;SDS011;13815;52.374;4.882;2023-02-15T14:52:06;85.30;;;32.20;;
26038;SDS011;13815;52.374;4.882;2023-02-15T15:05:51;59.88;;;29.83;;
26038;SDS011;13815;52.374;4.882;2023-02-15T15:07:59;52.97;;;29.65;;
26038;SDS011;13815;52.374;4.882;2023-02-15T15:10:34;61.83;;;32.03;;
26038;SDS011;13815;52.374;4.882;2023-02-15T15:15:55;61.58;;;30.77;;
26038;SDS011;13815;52.374;4.882;2023-02-15T15:21:11;61.67;;;29.58;;
26038;SDS011;13815;52.374;4.882;2023-02-15T15:44:31;52.05;;;28.75;;
26038;SDS011;13815;52.374;4.882;2023-02-15T15:50:04;56.55;;;28.98;;
26038;SDS011;13815;52.374;4.882;2023-02-15T15:52:37;58.42;;;27.38;;
26038;SDS011;13815;52.374;4.882;2023-02-15T15:55:05;63.28;;;29.83;;
26038;SDS011;13815;52.374;4.882;2023-02-15T15:57:41;51.03;;;28.38;;
26038;SDS011;13815;52.374;4.882;2023-02-15T16:00:51;78.22;;;32.28;;
26038;SDS011;13815;52.374;4.882;2023-02-15T16:03:47;55.72;;;30.00;;
26038;SDS011;13815;52.374;4.882;2023-02-15T16:06:01;57.17;;;29.52;;
26038;SDS011;13815;52.374;4.882;2023-02-15T16:10:56;61.78;;;28.17;;
26038;SDS011;13815;52.374;4.882;2023-02-15T16:13:22;70.00;;;28.42;;
26038;SDS011;13815;52.374;4.882;2023-02-15T16:15:47;74.20;;;30.17;;
26038;SDS011;13815;52.374;4.882;2023-02-15T16:18:17;52.08;;;28.33;;
26038;SDS011;13815;52.374;4.882;2023-02-15T16:20:49;76.90;;;29.42;;
26038;SDS011;13815;52.374;4.882;2023-02-15T16:23:34;65.57;;;27.70;;
26038;SDS011;13815;52.374;4.882;2023-02-15T16:28:49;68.55;;;30.40;;
26038;SDS011;13815;52.374;4.882;2023-02-15T16:31:16;79.05;;;29.52;;
26038;SDS011;13815;52.374;4.882;2023-02-15T16:33:42;45.30;;;28.50;;
26038;SDS011;13815;52.374;4.882;2023-02-15T16:36:10;64.95;;;27.45;;
26038;SDS011;13815;52.374;4.882;2023-02-15T16:41:20;56.10;;;27.48;;
26038;SDS011;13815;52.374;4.882;2023-02-15T16:43:47;51.45;;;26.73;;
26038;SDS011;13815;52.374;4.882;2023-02-15T16:46:18;44.75;;;27.05;;
26038;SDS011;13815;52.374;4.882;2023-02-15T16:48:48;68.95;;;26.20;;
26038;SDS011;13815;52.374;4.882;2023-02-15T16:51:20;57.35;;;26.73;;
26038;SDS011;13815;52.374;4.882;2023-02-15T16:53:48;61.55;;;24.40;;
26038;SDS011;13815;52.374;4.882;2023-02-15T16:56:14;63.13;;;24.50;;
26038;SDS011;13815;52.374;4.882;2023-02-15T17:01:07;76.10;;;26.42;;
26038;SDS011;13815;52.374;4.882;2023-02-15T17:03:38;49.97;;;25.40;;
26038;SDS011;13815;52.374;4.882;2023-02-15T17:06:05;48.63;;;24.08;;
26038;SDS011;13815;52.374;4.882;2023-02-15T17:08:47;34.05;;;24.08;;
26038;SDS011;13815;52.374;4.882;2023-02-15T17:11:20;40.83;;;24.50;;
26038;SDS011;13815;52.374;4.882;2023-02-15T17:14:09;49.30;;;24.38;;
26038;SDS011;13815;52.374;4.882;2023-02-15T17:19:01;33.33;;;21.67;;
26038;SDS011;13815;52.374;4.882;2023-02-15T17:21:30;26.55;;;19.92;;
26038;SDS011;13815;52.374;4.882;2023-02-15T17:23:58;48.53;;;20.63;;
26038;SDS011;13815;52.374;4.882;2023-02-15T17:26:29;24.10;;;18.33;;
26038;SDS011;13815;52.374;4.882;2023-02-15T17:28:59;34.05;;;19.00;;
26038;SDS011;13815;52.374;4.882;2023-02-15T17:31:26;27.98;;;18.02;;
26038;SDS011;13815;52.374;4.882;2023-02-15T17:33:56;25.10;;;17.08;;
26038;SDS011;13815;52.374;4.882;2023-02-15T17:36:24;56.53;;;19.88;;
26038;SDS011;13815;52.374;4.882;2023-02-15T17:41:21;40.25;;;18.17;;
26038;SDS011;13815;52.374;4.882;2023-02-15T17:43:52;29.55;;;17.70;;
26038;SDS011;13815;52.374;4.882;2023-02-15T17:46:18;19.75;;;16.90;;
26038;SDS011;13815;52.374;4.882;2023-02-15T17:48:47;47.55;;;19.33;;
26038;SDS011;13815;52.374;4.882;2023-02-15T17:51:14;23.55;;;16.65;;
26038;SDS011;13815;52.374;4.882;2023-02-15T17:53:40;26.20;;;16.48;;
26038;SDS011;13815;52.374;4.882;2023-02-15T17:56:26;20.45;;;15.68;;
26038;SDS011;13815;52.374;4.882;2023-02-15T17:58:51;27.48;;;15.68;;
26038;SDS011;13815;52.374;4.882;2023-02-15T18:01:17;60.15;;;18.70;;
26038;SDS011;13815;52.374;4.882;2023-02-15T18:04:02;30.08;;;15.93;;